Delphos, OH (45833)

7:57 AM EST on February 06, 2016 (GMT -0500)
2.3 MI. ESE Delphos | | Change Station
CLOSE
Current Station
Personal Weather Station
Location: Delphos, OH
Elevation: 778 ft
Nearby Weather Stations

Elev 778 ft 40.83 °N, 84.30 °W | Updated 1 minute ago

Mostly Cloudy
Mostly Cloudy
19.0 °F
Feels Like 19 °F
N
0.0
Wind Variable Wind from SE

Today
High -- | Low -- °F
--% Chance of Precip.
Yesterday
High -- | Low -- °F
Precip. -- in
Pressure 30.34 in
Visibility 2.0 miles
Clouds Overcast 400 ft
Windchill 19 °F
Dew Point 18 °F
Humidity 95%
Rainfall 0.00 in
Snow Depth Not available.
7:42 AM 6:00 PM
Waning Crescent, 6% visible
METAR KAOH 061253Z AUTO 22005KT 2SM BR OVC004 M04/M04 A3030 RMK AO2 SLP273 T10391044
Pressure 30.34 in
Visibility 2.0 miles
Clouds Overcast 400 ft
Windchill 19 °F
Dew Point 18 °F
Humidity 95%
Rainfall 0.00 in
Snow Depth Not available.
7:42 AM 6:00 PM
Waning Crescent, 6% visible
METAR KAOH 061253Z AUTO 22005KT 2SM BR OVC004 M04/M04 A3030 RMK AO2 SLP273 T10391044

10-Day Weather Forecast

Almanac

Astronomy

Feb. 06, 2016 Rise Set
Actual Time
Civil Twilight
Nautical Twilight
Astronomical Twilight
Moon
Length of Visible Light
Length of Day
Tomorrow will be .
, % of the Moon is Illuminated

Today's Extremes

State Highs State Lows

Community

WunderPhotos

Upload Photos

1,890,954 photos uploaded!

WunderBlog® & News

Nearby

Air Quality

  Air Quality AQ Index Pollutant
Not available.

Snow Depth

Station Depth Elevation

Earthquake Activity

City Distance Mag. Time & Date
Minimum magnitude displayed is 2.5.

Coastal Water Temperatures

Place Temperature

Stations

Nearby Weather Stations

Station Location Temp. Windchill Dew Point Humidity Wind Precip. Elev Updated Type
                   

Watches & Warnings

There are currently no watches in effect.